sensor_id;sensor_type;location;lat;lon;timestamp;P1;durP1;ratioP1;P2;durP2;ratioP2
51724;SDS011;37801;53.224;6.552;2023-02-28T00:00:23;6.43;;;2.28;;
51724;SDS011;37801;53.224;6.552;2023-02-28T00:02:52;7.85;;;1.92;;
51724;SDS011;37801;53.224;6.552;2023-02-28T00:05:18;7.45;;;2.08;;
51724;SDS011;37801;53.224;6.552;2023-02-28T00:07:47;4.63;;;1.70;;
51724;SDS011;37801;53.224;6.552;2023-02-28T00:10:14;8.27;;;1.83;;
51724;SDS011;37801;53.224;6.552;2023-02-28T00:12:49;5.82;;;1.90;;
51724;SDS011;37801;53.224;6.552;2023-02-28T00:15:16;6.78;;;1.80;;
51724;SDS011;37801;53.224;6.552;2023-02-28T00:17:42;4.72;;;1.73;;
51724;SDS011;37801;53.224;6.552;2023-02-28T00:20:08;3.97;;;1.80;;
51724;SDS011;37801;53.224;6.552;2023-02-28T00:22:43;4.88;;;1.70;;
51724;SDS011;37801;53.224;6.552;2023-02-28T00:25:11;5.18;;;1.90;;
51724;SDS011;37801;53.224;6.552;2023-02-28T00:27:41;5.72;;;2.13;;
51724;SDS011;37801;53.224;6.552;2023-02-28T00:30:08;8.98;;;2.13;;
51724;SDS011;37801;53.224;6.552;2023-02-28T00:32:37;7.70;;;1.95;;
51724;SDS011;37801;53.224;6.552;2023-02-28T00:35:03;5.85;;;1.80;;
51724;SDS011;37801;53.224;6.552;2023-02-28T00:37:30;5.50;;;1.75;;
51724;SDS011;37801;53.224;6.552;2023-02-28T00:39:55;6.90;;;2.10;;
51724;SDS011;37801;53.224;6.552;2023-02-28T00:42:22;3.80;;;1.50;;
51724;SDS011;37801;53.224;6.552;2023-02-28T00:44:48;4.07;;;1.50;;
51724;SDS011;37801;53.224;6.552;2023-02-28T00:47:13;6.60;;;2.10;;
51724;SDS011;37801;53.224;6.552;2023-02-28T00:49:39;5.10;;;1.55;;
51724;SDS011;37801;53.224;6.552;2023-02-28T00:52:05;8.60;;;1.70;;
51724;SDS011;37801;53.224;6.552;2023-02-28T00:54:31;5.90;;;1.73;;
51724;SDS011;37801;53.224;6.552;2023-02-28T00:56:57;7.80;;;1.80;;
51724;SDS011;37801;53.224;6.552;2023-02-28T00:59:23;7.20;;;1.48;;
51724;SDS011;37801;53.224;6.552;2023-02-28T01:01:49;5.75;;;1.67;;
51724;SDS011;37801;53.224;6.552;2023-02-28T01:04:15;5.82;;;1.63;;
51724;SDS011;37801;53.224;6.552;2023-02-28T01:06:40;9.63;;;2.15;;
51724;SDS011;37801;53.224;6.552;2023-02-28T01:09:07;6.45;;;1.77;;
51724;SDS011;37801;53.224;6.552;2023-02-28T01:11:33;5.18;;;1.60;;
51724;SDS011;37801;53.224;6.552;2023-02-28T01:14:00;5.13;;;1.52;;
51724;SDS011;37801;53.224;6.552;2023-02-28T01:16:26;6.35;;;1.50;;
51724;SDS011;37801;53.224;6.552;2023-02-28T01:18:52;4.35;;;1.75;;
51724;SDS011;37801;53.224;6.552;2023-02-28T01:21:19;4.82;;;2.00;;
51724;SDS011;37801;53.224;6.552;2023-02-28T01:23:46;5.72;;;1.50;;
51724;SDS011;37801;53.224;6.552;2023-02-28T01:26:17;8.18;;;1.92;;
51724;SDS011;37801;53.224;6.552;2023-02-28T01:28:44;6.28;;;1.80;;
51724;SDS011;37801;53.224;6.552;2023-02-28T01:31:11;5.18;;;1.77;;
51724;SDS011;37801;53.224;6.552;2023-02-28T01:33:37;5.15;;;1.70;;
51724;SDS011;37801;53.224;6.552;2023-02-28T01:38:34;5.07;;;1.88;;
51724;SDS011;37801;53.224;6.552;2023-02-28T01:41:01;8.82;;;1.92;;
51724;SDS011;37801;53.224;6.552;2023-02-28T01:43:28;7.45;;;1.85;;
51724;SDS011;37801;53.224;6.552;2023-02-28T01:45:56;5.78;;;1.60;;
51724;SDS011;37801;53.224;6.552;2023-02-28T01:48:25;6.88;;;1.67;;
51724;SDS011;37801;53.224;6.552;2023-02-28T01:50:55;6.45;;;1.50;;
51724;SDS011;37801;53.224;6.552;2023-02-28T01:53:26;5.65;;;1.67;;
51724;SDS011;37801;53.224;6.552;2023-02-28T01:55:57;8.15;;;1.92;;
51724;SDS011;37801;53.224;6.552;2023-02-28T01:58:23;6.53;;;1.77;;
51724;SDS011;37801;53.224;6.552;2023-02-28T02:00:49;6.18;;;1.55;;
51724;SDS011;37801;53.224;6.552;2023-02-28T02:03:16;5.25;;;1.48;;
51724;SDS011;37801;53.224;6.552;2023-02-28T02:05:45;5.43;;;1.63;;
51724;SDS011;37801;53.224;6.552;2023-02-28T02:08:15;6.93;;;1.42;;
51724;SDS011;37801;53.224;6.552;2023-02-28T02:10:54;5.07;;;1.45;;
51724;SDS011;37801;53.224;6.552;2023-02-28T02:19:27;4.93;;;1.27;;
51724;SDS011;37801;53.224;6.552;2023-02-28T02:25:20;5.82;;;1.50;;
51724;SDS011;37801;53.224;6.552;2023-02-28T02:28:27;5.82;;;1.40;;
51724;SDS011;37801;53.224;6.552;2023-02-28T02:42:39;3.95;;;1.40;;
51724;SDS011;37801;53.224;6.552;2023-02-28T02:45:53;3.72;;;1.35;;
51724;SDS011;37801;53.224;6.552;2023-02-28T02:48:21;6.43;;;1.52;;
51724;SDS011;37801;53.224;6.552;2023-02-28T02:50:56;6.05;;;1.27;;
51724;SDS011;37801;53.224;6.552;2023-02-28T02:53:27;4.10;;;1.23;;
51724;SDS011;37801;53.224;6.552;2023-02-28T02:56:00;6.72;;;1.50;;
51724;SDS011;37801;53.224;6.552;2023-02-28T02:58:29;10.82;;;1.35;;
51724;SDS011;37801;53.224;6.552;2023-02-28T03:01:07;3.88;;;1.42;;
51724;SDS011;37801;53.224;6.552;2023-02-28T03:03:35;5.03;;;1.45;;
51724;SDS011;37801;53.224;6.552;2023-02-28T03:06:02;4.93;;;1.55;;
51724;SDS011;37801;53.224;6.552;2023-02-28T03:08:29;4.35;;;1.23;;
51724;SDS011;37801;53.224;6.552;2023-02-28T03:10:59;4.53;;;1.55;;
51724;SDS011;37801;53.224;6.552;2023-02-28T03:16:25;3.80;;;1.20;;
51724;SDS011;37801;53.224;6.552;2023-02-28T03:33:30;4.80;;;2.15;;
51724;SDS011;37801;53.224;6.552;2023-02-28T03:36:04;5.38;;;2.63;;
51724;SDS011;37801;53.224;6.552;2023-02-28T03:38:40;7.50;;;2.80;;
51724;SDS011;37801;53.224;6.552;2023-02-28T03:41:18;5.43;;;2.90;;
51724;SDS011;37801;53.224;6.552;2023-02-28T03:43:51;7.15;;;3.40;;
51724;SDS011;37801;53.224;6.552;2023-02-28T03:46:22;5.70;;;3.03;;
51724;SDS011;37801;53.224;6.552;2023-02-28T03:48:55;7.53;;;4.10;;
51724;SDS011;37801;53.224;6.552;2023-02-28T03:51:25;8.23;;;4.47;;
51724;SDS011;37801;53.224;6.552;2023-02-28T03:53:54;8.02;;;4.57;;
51724;SDS011;37801;53.224;6.552;2023-02-28T03:56:31;6.28;;;4.35;;
51724;SDS011;37801;53.224;6.552;2023-02-28T04:01:47;9.73;;;5.40;;
51724;SDS011;37801;53.224;6.552;2023-02-28T04:04:14;8.43;;;5.82;;
51724;SDS011;37801;53.224;6.552;2023-02-28T04:06:41;8.23;;;5.35;;
51724;SDS011;37801;53.224;6.552;2023-02-28T04:09:09;8.07;;;4.95;;
51724;SDS011;37801;53.224;6.552;2023-02-28T04:11:37;11.07;;;5.80;;
51724;SDS011;37801;53.224;6.552;2023-02-28T04:14:05;9.52;;;5.35;;
51724;SDS011;37801;53.224;6.552;2023-02-28T04:16:33;8.43;;;5.28;;
51724;SDS011;37801;53.224;6.552;2023-02-28T04:19:00;8.02;;;5.28;;
51724;SDS011;37801;53.224;6.552;2023-02-28T04:21:34;8.95;;;5.68;;
51724;SDS011;37801;53.224;6.552;2023-02-28T04:24:20;7.45;;;4.90;;
51724;SDS011;37801;53.224;6.552;2023-02-28T04:26:51;8.20;;;5.07;;
51724;SDS011;37801;53.224;6.552;2023-02-28T04:29:19;7.47;;;4.90;;
51724;SDS011;37801;53.224;6.552;2023-02-28T04:31:49;6.88;;;5.25;;
51724;SDS011;37801;53.224;6.552;2023-02-28T04:34:15;8.93;;;4.93;;
51724;SDS011;37801;53.224;6.552;2023-02-28T04:36:41;8.93;;;5.43;;
51724;SDS011;37801;53.224;6.552;2023-02-28T04:39:07;8.40;;;4.82;;
51724;SDS011;37801;53.224;6.552;2023-02-28T04:41:34;7.57;;;5.30;;
51724;SDS011;37801;53.224;6.552;2023-02-28T04:44:00;6.07;;;4.22;;
51724;SDS011;37801;53.224;6.552;2023-02-28T04:46:26;7.15;;;4.93;;
51724;SDS011;37801;53.224;6.552;2023-02-28T04:48:51;7.18;;;4.60;;
51724;SDS011;37801;53.224;6.552;2023-02-28T04:51:19;7.15;;;4.88;;
51724;SDS011;37801;53.224;6.552;2023-02-28T04:53:45;7.00;;;4.80;;
51724;SDS011;37801;53.224;6.552;2023-02-28T04:56:12;6.30;;;4.22;;
51724;SDS011;37801;53.224;6.552;2023-02-28T04:58:39;6.47;;;4.45;;
51724;SDS011;37801;53.224;6.552;2023-02-28T05:01:27;7.78;;;4.75;;
51724;SDS011;37801;53.224;6.552;2023-02-28T05:03:55;6.07;;;4.28;;
51724;SDS011;37801;53.224;6.552;2023-02-28T05:06:23;6.43;;;4.05;;
51724;SDS011;37801;53.224;6.552;2023-02-28T05:08:51;6.18;;;4.30;;
51724;SDS011;37801;53.224;6.552;2023-02-28T05:11:18;6.65;;;4.38;;
51724;SDS011;37801;53.224;6.552;2023-02-28T05:13:45;8.18;;;5.15;;
51724;SDS011;37801;53.224;6.552;2023-02-28T05:16:12;5.80;;;4.30;;
51724;SDS011;37801;53.224;6.552;2023-02-28T05:18:38;7.43;;;4.68;;
51724;SDS011;37801;53.224;6.552;2023-02-28T05:21:03;6.65;;;4.53;;
51724;SDS011;37801;53.224;6.552;2023-02-28T05:23:29;7.03;;;4.40;;
51724;SDS011;37801;53.224;6.552;2023-02-28T05:25:55;6.25;;;4.45;;
51724;SDS011;37801;53.224;6.552;2023-02-28T05:28:21;9.60;;;4.93;;
51724;SDS011;37801;53.224;6.552;2023-02-28T05:30:47;7.18;;;4.72;;
51724;SDS011;37801;53.224;6.552;2023-02-28T05:33:13;7.82;;;4.82;;
51724;SDS011;37801;53.224;6.552;2023-02-28T05:35:39;6.78;;;4.70;;
51724;SDS011;37801;53.224;6.552;2023-02-28T05:38:06;8.23;;;5.22;;
51724;SDS011;37801;53.224;6.552;2023-02-28T05:40:32;9.23;;;5.47;;
51724;SDS011;37801;53.224;6.552;2023-02-28T05:42:58;8.88;;;5.38;;
51724;SDS011;37801;53.224;6.552;2023-02-28T05:45:23;6.95;;;4.85;;
51724;SDS011;37801;53.224;6.552;2023-02-28T05:47:52;7.55;;;5.07;;
51724;SDS011;37801;53.224;6.552;2023-02-28T05:50:18;8.82;;;5.50;;
51724;SDS011;37801;53.224;6.552;2023-02-28T05:52:48;7.93;;;5.38;;
51724;SDS011;37801;53.224;6.552;2023-02-28T05:55:17;9.70;;;6.13;;
51724;SDS011;37801;53.224;6.552;2023-02-28T05:57:43;9.95;;;5.68;;
51724;SDS011;37801;53.224;6.552;2023-02-28T06:00:10;9.95;;;6.45;;
51724;SDS011;37801;53.224;6.552;2023-02-28T06:02:38;8.77;;;5.93;;
51724;SDS011;37801;53.224;6.552;2023-02-28T06:05:05;8.93;;;6.18;;
51724;SDS011;37801;53.224;6.552;2023-02-28T06:07:38;10.43;;;6.60;;
51724;SDS011;37801;53.224;6.552;2023-02-28T06:10:04;10.88;;;6.30;;
51724;SDS011;37801;53.224;6.552;2023-02-28T06:12:30;9.57;;;6.28;;
51724;SDS011;37801;53.224;6.552;2023-02-28T06:14:56;12.32;;;7.45;;
51724;SDS011;37801;53.224;6.552;2023-02-28T06:17:21;9.73;;;6.88;;
51724;SDS011;37801;53.224;6.552;2023-02-28T06:19:47;10.50;;;7.25;;
51724;SDS011;37801;53.224;6.552;2023-02-28T06:22:13;8.90;;;6.55;;
51724;SDS011;37801;53.224;6.552;2023-02-28T06:24:38;9.57;;;7.03;;
51724;SDS011;37801;53.224;6.552;2023-02-28T06:27:04;9.85;;;7.03;;
51724;SDS011;37801;53.224;6.552;2023-02-28T06:29:31;9.52;;;6.85;;
51724;SDS011;37801;53.224;6.552;2023-02-28T06:31:57;8.98;;;6.50;;
51724;SDS011;37801;53.224;6.552;2023-02-28T06:34:23;10.23;;;7.00;;
51724;SDS011;37801;53.224;6.552;2023-02-28T06:36:50;9.70;;;6.60;;
51724;SDS011;37801;53.224;6.552;2023-02-28T06:39:17;8.85;;;6.45;;
51724;SDS011;37801;53.224;6.552;2023-02-28T06:41:43;11.50;;;6.85;;
51724;SDS011;37801;53.224;6.552;2023-02-28T06:44:11;8.98;;;6.32;;
51724;SDS011;37801;53.224;6.552;2023-02-28T06:46:42;8.38;;;6.38;;
51724;SDS011;37801;53.224;6.552;2023-02-28T06:49:09;9.98;;;6.28;;
51724;SDS011;37801;53.224;6.552;2023-02-28T06:51:36;9.07;;;6.50;;
51724;SDS011;37801;53.224;6.552;2023-02-28T06:54:06;9.90;;;6.38;;
51724;SDS011;37801;53.224;6.552;2023-02-28T06:56:35;10.07;;;6.57;;
51724;SDS011;37801;53.224;6.552;2023-02-28T06:59:01;9.35;;;6.55;;
51724;SDS011;37801;53.224;6.552;2023-02-28T07:01:28;11.10;;;7.13;;
51724;SDS011;37801;53.224;6.552;2023-02-28T07:03:54;11.38;;;7.88;;
51724;SDS011;37801;53.224;6.552;2023-02-28T07:06:23;10.52;;;6.97;;
51724;SDS011;37801;53.224;6.552;2023-02-28T07:08:50;12.73;;;8.05;;
51724;SDS011;37801;53.224;6.552;2023-02-28T07:11:17;12.15;;;8.75;;
51724;SDS011;37801;53.224;6.552;2023-02-28T07:13:44;13.40;;;9.23;;
51724;SDS011;37801;53.224;6.552;2023-02-28T07:16:10;13.70;;;8.95;;
51724;SDS011;37801;53.224;6.552;2023-02-28T07:18:37;12.88;;;8.85;;
51724;SDS011;37801;53.224;6.552;2023-02-28T07:21:03;13.98;;;8.73;;
51724;SDS011;37801;53.224;6.552;2023-02-28T07:23:31;13.60;;;9.05;;
51724;SDS011;37801;53.224;6.552;2023-02-28T07:25:57;14.32;;;9.70;;
51724;SDS011;37801;53.224;6.552;2023-02-28T07:28:22;14.00;;;9.38;;
51724;SDS011;37801;53.224;6.552;2023-02-28T07:30:48;15.43;;;9.60;;
51724;SDS011;37801;53.224;6.552;2023-02-28T07:33:14;14.40;;;10.00;;
51724;SDS011;37801;53.224;6.552;2023-02-28T07:35:40;13.05;;;9.50;;
51724;SDS011;37801;53.224;6.552;2023-02-28T07:38:06;15.77;;;9.05;;
51724;SDS011;37801;53.224;6.552;2023-02-28T07:40:35;14.15;;;9.30;;
51724;SDS011;37801;53.224;6.552;2023-02-28T07:43:01;14.32;;;8.77;;
51724;SDS011;37801;53.224;6.552;2023-02-28T07:45:28;14.02;;;8.93;;
51724;SDS011;37801;53.224;6.552;2023-02-28T07:47:56;12.98;;;8.98;;
51724;SDS011;37801;53.224;6.552;2023-02-28T07:50:22;12.30;;;8.77;;
51724;SDS011;37801;53.224;6.552;2023-02-28T07:52:48;11.43;;;8.63;;
51724;SDS011;37801;53.224;6.552;2023-02-28T07:55:14;14.10;;;9.30;;
51724;SDS011;37801;53.224;6.552;2023-02-28T07:57:41;14.57;;;9.65;;
51724;SDS011;37801;53.224;6.552;2023-02-28T08:00:09;14.55;;;9.93;;
51724;SDS011;37801;53.224;6.552;2023-02-28T08:02:35;14.98;;;10.40;;
51724;SDS011;37801;53.224;6.552;2023-02-28T08:05:01;14.85;;;10.18;;
51724;SDS011;37801;53.224;6.552;2023-02-28T08:07:27;15.38;;;9.95;;
51724;SDS011;37801;53.224;6.552;2023-02-28T08:09:53;15.85;;;10.30;;
51724;SDS011;37801;53.224;6.552;2023-02-28T08:12:19;15.55;;;9.90;;
51724;SDS011;37801;53.224;6.552;2023-02-28T08:14:45;14.90;;;10.18;;
51724;SDS011;37801;53.224;6.552;2023-02-28T08:17:11;16.38;;;10.10;;
51724;SDS011;37801;53.224;6.552;2023-02-28T08:19:37;15.30;;;10.93;;
51724;SDS011;37801;53.224;6.552;2023-02-28T08:22:03;19.10;;;11.48;;
51724;SDS011;37801;53.224;6.552;2023-02-28T08:24:28;15.50;;;9.82;;
51724;SDS011;37801;53.224;6.552;2023-02-28T08:26:54;14.18;;;9.93;;
51724;SDS011;37801;53.224;6.552;2023-02-28T08:29:20;18.42;;;10.32;;
51724;SDS011;37801;53.224;6.552;2023-02-28T08:31:46;15.73;;;9.93;;
51724;SDS011;37801;53.224;6.552;2023-02-28T08:34:13;19.50;;;10.02;;
51724;SDS011;37801;53.224;6.552;2023-02-28T08:36:40;16.30;;;10.43;;
51724;SDS011;37801;53.224;6.552;2023-02-28T08:39:07;12.48;;;9.70;;
51724;SDS011;37801;53.224;6.552;2023-02-28T08:41:34;17.27;;;10.60;;
51724;SDS011;37801;53.224;6.552;2023-02-28T08:44:00;14.77;;;9.98;;
51724;SDS011;37801;53.224;6.552;2023-02-28T08:46:26;17.40;;;10.43;;
51724;SDS011;37801;53.224;6.552;2023-02-28T08:48:52;16.73;;;10.80;;
51724;SDS011;37801;53.224;6.552;2023-02-28T08:51:20;15.93;;;10.15;;
51724;SDS011;37801;53.224;6.552;2023-02-28T08:53:51;14.35;;;9.90;;
51724;SDS011;37801;53.224;6.552;2023-02-28T08:56:18;14.90;;;10.13;;
51724;SDS011;37801;53.224;6.552;2023-02-28T08:58:45;14.45;;;9.98;;
51724;SDS011;37801;53.224;6.552;2023-02-28T09:01:16;15.68;;;9.65;;
51724;SDS011;37801;53.224;6.552;2023-02-28T09:04:01;14.60;;;10.02;;
51724;SDS011;37801;53.224;6.552;2023-02-28T09:06:27;15.73;;;9.63;;
51724;SDS011;37801;53.224;6.552;2023-02-28T09:08:55;13.43;;;9.43;;
51724;SDS011;37801;53.224;6.552;2023-02-28T09:11:23;13.20;;;9.30;;
51724;SDS011;37801;53.224;6.552;2023-02-28T09:13:49;15.57;;;9.38;;
51724;SDS011;37801;53.224;6.552;2023-02-28T09:16:15;15.55;;;10.18;;
51724;SDS011;37801;53.224;6.552;2023-02-28T09:18:42;14.65;;;9.00;;
51724;SDS011;37801;53.224;6.552;2023-02-28T09:21:09;16.38;;;9.45;;
51724;SDS011;37801;53.224;6.552;2023-02-28T09:23:39;12.52;;;8.63;;
51724;SDS011;37801;53.224;6.552;2023-02-28T09:26:06;17.58;;;9.05;;
51724;SDS011;37801;53.224;6.552;2023-02-28T09:28:32;12.38;;;8.05;;
51724;SDS011;37801;53.224;6.552;2023-02-28T09:30:59;13.65;;;9.13;;
51724;SDS011;37801;53.224;6.552;2023-02-28T09:33:25;13.63;;;9.43;;
51724;SDS011;37801;53.224;6.552;2023-02-28T09:35:57;14.52;;;9.57;;
51724;SDS011;37801;53.224;6.552;2023-02-28T09:38:24;15.20;;;9.93;;
51724;SDS011;37801;53.224;6.552;2023-02-28T09:40:52;16.48;;;10.15;;
51724;SDS011;37801;53.224;6.552;2023-02-28T09:43:22;13.77;;;9.52;;
51724;SDS011;37801;53.224;6.552;2023-02-28T09:45:51;16.00;;;9.93;;
51724;SDS011;37801;53.224;6.552;2023-02-28T09:50:55;13.32;;;9.00;;
51724;SDS011;37801;53.224;6.552;2023-02-28T09:53:35;16.20;;;10.55;;
51724;SDS011;37801;53.224;6.552;2023-02-28T09:56:08;18.40;;;10.43;;
51724;SDS011;37801;53.224;6.552;2023-02-28T10:02:13;15.63;;;10.82;;
51724;SDS011;37801;53.224;6.552;2023-02-28T10:06:57;14.88;;;10.30;;
51724;SDS011;37801;53.224;6.552;2023-02-28T10:09:26;18.98;;;10.18;;
51724;SDS011;37801;53.224;6.552;2023-02-28T10:11:56;15.90;;;9.70;;
51724;SDS011;37801;53.224;6.552;2023-02-28T10:14:29;16.90;;;9.90;;
51724;SDS011;37801;53.224;6.552;2023-02-28T10:17:00;15.32;;;10.43;;
51724;SDS011;37801;53.224;6.552;2023-02-28T10:20:30;18.00;;;9.50;;
51724;SDS011;37801;53.224;6.552;2023-02-28T10:25:32;16.00;;;10.73;;
51724;SDS011;37801;53.224;6.552;2023-02-28T10:28:05;15.63;;;10.30;;
51724;SDS011;37801;53.224;6.552;2023-02-28T10:30:39;15.98;;;9.82;;
51724;SDS011;37801;53.224;6.552;2023-02-28T10:33:42;17.92;;;10.57;;
51724;SDS011;37801;53.224;6.552;2023-02-28T10:36:01;13.27;;;9.00;;
51724;SDS011;37801;53.224;6.552;2023-02-28T10:38:33;13.27;;;8.98;;
51724;SDS011;37801;53.224;6.552;2023-02-28T10:41:05;15.73;;;9.10;;
51724;SDS011;37801;53.224;6.552;2023-02-28T10:43:33;15.65;;;8.93;;
51724;SDS011;37801;53.224;6.552;2023-02-28T10:46:01;15.25;;;9.18;;
51724;SDS011;37801;53.224;6.552;2023-02-28T10:51:10;13.80;;;8.85;;
51724;SDS011;37801;53.224;6.552;2023-02-28T10:56:24;14.13;;;8.35;;
51724;SDS011;37801;53.224;6.552;2023-02-28T11:01:21;14.05;;;7.78;;
51724;SDS011;37801;53.224;6.552;2023-02-28T11:03:47;14.43;;;8.57;;
51724;SDS011;37801;53.224;6.552;2023-02-28T11:08:50;12.90;;;7.88;;
51724;SDS011;37801;53.224;6.552;2023-02-28T11:11:18;9.27;;;6.75;;
51724;SDS011;37801;53.224;6.552;2023-02-28T11:13:47;9.93;;;6.85;;
51724;SDS011;37801;53.224;6.552;2023-02-28T11:16:17;10.60;;;6.50;;
51724;SDS011;37801;53.224;6.552;2023-02-28T11:18:46;12.02;;;7.05;;
51724;SDS011;37801;53.224;6.552;2023-02-28T11:21:25;9.90;;;6.32;;
51724;SDS011;37801;53.224;6.552;2023-02-28T11:24:04;9.52;;;6.55;;
51724;SDS011;37801;53.224;6.552;2023-02-28T11:26:47;10.23;;;6.50;;
51724;SDS011;37801;53.224;6.552;2023-02-28T11:31:48;10.38;;;6.07;;
51724;SDS011;37801;53.224;6.552;2023-02-28T11:34:38;9.95;;;6.30;;
51724;SDS011;37801;53.224;6.552;2023-02-28T11:37:05;8.93;;;5.75;;
51724;SDS011;37801;53.224;6.552;2023-02-28T11:39:40;9.25;;;5.57;;
51724;SDS011;37801;53.224;6.552;2023-02-28T11:48:14;8.40;;;5.43;;
51724;SDS011;37801;53.224;6.552;2023-02-28T11:51:13;9.80;;;5.07;;
51724;SDS011;37801;53.224;6.552;2023-02-28T11:59:27;8.30;;;5.38;;
51724;SDS011;37801;53.224;6.552;2023-02-28T12:07:44;7.25;;;5.65;;
51724;SDS011;37801;53.224;6.552;2023-02-28T12:10:26;9.57;;;5.82;;
51724;SDS011;37801;53.224;6.552;2023-02-28T12:12:59;9.02;;;5.72;;
51724;SDS011;37801;53.224;6.552;2023-02-28T12:27:15;8.98;;;5.20;;
51724;SDS011;37801;53.224;6.552;2023-02-28T12:32:21;9.43;;;5.15;;
51724;SDS011;37801;53.224;6.552;2023-02-28T12:34:57;7.47;;;4.80;;
51724;SDS011;37801;53.224;6.552;2023-02-28T12:37:48;7.35;;;4.55;;
51724;SDS011;37801;53.224;6.552;2023-02-28T12:40:23;8.65;;;5.07;;
51724;SDS011;37801;53.224;6.552;2023-02-28T12:42:59;7.20;;;4.85;;
51724;SDS011;37801;53.224;6.552;2023-02-28T12:48:21;8.07;;;4.78;;
51724;SDS011;37801;53.224;6.552;2023-02-28T12:50:52;7.95;;;4.97;;
51724;SDS011;37801;53.224;6.552;2023-02-28T12:58:42;6.50;;;4.53;;
51724;SDS011;37801;53.224;6.552;2023-02-28T13:07:08;8.13;;;5.07;;
51724;SDS011;37801;53.224;6.552;2023-02-28T13:09:36;8.18;;;5.07;;
51724;SDS011;37801;53.224;6.552;2023-02-28T13:12:12;8.48;;;5.15;;
51724;SDS011;37801;53.224;6.552;2023-02-28T13:14:39;8.98;;;5.38;;
51724;SDS011;37801;53.224;6.552;2023-02-28T13:19:35;9.25;;;5.63;;
51724;SDS011;37801;53.224;6.552;2023-02-28T13:22:03;10.18;;;5.50;;
51724;SDS011;37801;53.224;6.552;2023-02-28T13:29:40;9.75;;;5.20;;
51724;SDS011;37801;53.224;6.552;2023-02-28T13:34:38;8.80;;;4.63;;
51724;SDS011;37801;53.224;6.552;2023-02-28T13:39:55;8.05;;;5.30;;
51724;SDS011;37801;53.224;6.552;2023-02-28T13:50:50;8.77;;;5.53;;
51724;SDS011;37801;53.224;6.552;2023-02-28T14:07:16;7.30;;;4.65;;
51724;SDS011;37801;53.224;6.552;2023-02-28T14:09:47;8.27;;;5.07;;
51724;SDS011;37801;53.224;6.552;2023-02-28T14:18:13;8.38;;;5.32;;
51724;SDS011;37801;53.224;6.552;2023-02-28T14:20:46;7.95;;;5.65;;
51724;SDS011;37801;53.224;6.552;2023-02-28T14:23:20;9.25;;;6.07;;
51724;SDS011;37801;53.224;6.552;2023-02-28T14:31:43;8.50;;;5.60;;
51724;SDS011;37801;53.224;6.552;2023-02-28T14:34:34;10.05;;;5.63;;
51724;SDS011;37801;53.224;6.552;2023-02-28T14:37:02;7.78;;;5.80;;
51724;SDS011;37801;53.224;6.552;2023-02-28T14:39:28;9.50;;;6.20;;
51724;SDS011;37801;53.224;6.552;2023-02-28T14:41:56;9.52;;;6.00;;
51724;SDS011;37801;53.224;6.552;2023-02-28T14:44:30;10.77;;;6.53;;
51724;SDS011;37801;53.224;6.552;2023-02-28T14:47:00;10.43;;;6.70;;
51724;SDS011;37801;53.224;6.552;2023-02-28T14:49:34;7.88;;;5.72;;
51724;SDS011;37801;53.224;6.552;2023-02-28T14:54:35;8.90;;;5.65;;
51724;SDS011;37801;53.224;6.552;2023-02-28T14:57:02;8.02;;;5.40;;
51724;SDS011;37801;53.224;6.552;2023-02-28T14:59:29;7.45;;;5.53;;
51724;SDS011;37801;53.224;6.552;2023-02-28T15:04:52;9.88;;;6.43;;
51724;SDS011;37801;53.224;6.552;2023-02-28T15:07:21;11.27;;;5.95;;
51724;SDS011;37801;53.224;6.552;2023-02-28T15:12:52;11.50;;;6.32;;
51724;SDS011;37801;53.224;6.552;2023-02-28T15:18:22;11.82;;;7.60;;
51724;SDS011;37801;53.224;6.552;2023-02-28T15:20:55;9.40;;;6.38;;
51724;SDS011;37801;53.224;6.552;2023-02-28T15:23:24;12.15;;;7.20;;
51724;SDS011;37801;53.224;6.552;2023-02-28T15:25:50;10.57;;;6.65;;
51724;SDS011;37801;53.224;6.552;2023-02-28T15:28:18;9.90;;;6.43;;
51724;SDS011;37801;53.224;6.552;2023-02-28T15:30:51;10.05;;;5.97;;
51724;SDS011;37801;53.224;6.552;2023-02-28T15:33:21;8.43;;;6.20;;
51724;SDS011;37801;53.224;6.552;2023-02-28T15:36:02;8.15;;;5.28;;
51724;SDS011;37801;53.224;6.552;2023-02-28T15:38:50;9.60;;;5.70;;
51724;SDS011;37801;53.224;6.552;2023-02-28T15:44:15;8.40;;;5.30;;
51724;SDS011;37801;53.224;6.552;2023-02-28T15:46:59;7.68;;;5.57;;
51724;SDS011;37801;53.224;6.552;2023-02-28T15:49:26;9.57;;;6.03;;
51724;SDS011;37801;53.224;6.552;2023-02-28T15:51:55;10.45;;;6.15;;
51724;SDS011;37801;53.224;6.552;2023-02-28T15:54:24;8.70;;;5.85;;
51724;SDS011;37801;53.224;6.552;2023-02-28T15:56:58;8.75;;;6.00;;
51724;SDS011;37801;53.224;6.552;2023-02-28T15:59:33;9.10;;;5.82;;
51724;SDS011;37801;53.224;6.552;2023-02-28T16:07:27;10.25;;;6.38;;
51724;SDS011;37801;53.224;6.552;2023-02-28T16:09:53;9.27;;;6.30;;
51724;SDS011;37801;53.224;6.552;2023-02-28T16:12:20;9.23;;;6.07;;
51724;SDS011;37801;53.224;6.552;2023-02-28T16:14:48;8.65;;;5.63;;
51724;SDS011;37801;53.224;6.552;2023-02-28T16:17:21;8.18;;;5.70;;
51724;SDS011;37801;53.224;6.552;2023-02-28T16:19:49;7.90;;;5.55;;
51724;SDS011;37801;53.224;6.552;2023-02-28T16:22:15;8.70;;;5.93;;
51724;SDS011;37801;53.224;6.552;2023-02-28T16:24:41;13.35;;;7.95;;
51724;SDS011;37801;53.224;6.552;2023-02-28T16:27:06;10.88;;;7.03;;
51724;SDS011;37801;53.224;6.552;2023-02-28T16:29:49;11.82;;;6.93;;
51724;SDS011;37801;53.224;6.552;2023-02-28T16:32:15;12.55;;;6.85;;
51724;SDS011;37801;53.224;6.552;2023-02-28T16:34:42;8.10;;;5.93;;
51724;SDS011;37801;53.224;6.552;2023-02-28T16:37:13;9.02;;;6.30;;
51724;SDS011;37801;53.224;6.552;2023-02-28T16:39:40;8.93;;;5.72;;
51724;SDS011;37801;53.224;6.552;2023-02-28T16:42:24;10.75;;;6.65;;
51724;SDS011;37801;53.224;6.552;2023-02-28T16:44:52;9.90;;;6.20;;
51724;SDS011;37801;53.224;6.552;2023-02-28T16:47:19;8.65;;;6.10;;
51724;SDS011;37801;53.224;6.552;2023-02-28T16:49:45;10.27;;;6.15;;
51724;SDS011;37801;53.224;6.552;2023-02-28T16:52:12;11.52;;;7.10;;
51724;SDS011;37801;53.224;6.552;2023-02-28T16:54:39;11.95;;;7.72;;
51724;SDS011;37801;53.224;6.552;2023-02-28T16:57:06;13.68;;;8.07;;
51724;SDS011;37801;53.224;6.552;2023-02-28T16:59:38;13.45;;;7.57;;
51724;SDS011;37801;53.224;6.552;2023-02-28T17:02:08;11.35;;;7.53;;
51724;SDS011;37801;53.224;6.552;2023-02-28T17:04:39;10.43;;;6.90;;
51724;SDS011;37801;53.224;6.552;2023-02-28T17:07:05;10.85;;;6.50;;
51724;SDS011;37801;53.224;6.552;2023-02-28T17:09:35;9.98;;;6.75;;
51724;SDS011;37801;53.224;6.552;2023-02-28T17:12:01;10.10;;;6.93;;
51724;SDS011;37801;53.224;6.552;2023-02-28T17:14:27;9.10;;;6.10;;
51724;SDS011;37801;53.224;6.552;2023-02-28T17:16:52;9.70;;;6.78;;
51724;SDS011;37801;53.224;6.552;2023-02-28T17:19:18;8.90;;;6.22;;
51724;SDS011;37801;53.224;6.552;2023-02-28T17:21:45;12.48;;;7.22;;
51724;SDS011;37801;53.224;6.552;2023-02-28T17:24:11;10.63;;;6.88;;
51724;SDS011;37801;53.224;6.552;2023-02-28T17:26:42;10.07;;;6.70;;
51724;SDS011;37801;53.224;6.552;2023-02-28T17:29:18;10.50;;;6.93;;
51724;SDS011;37801;53.224;6.552;2023-02-28T17:31:46;9.23;;;6.32;;
51724;SDS011;37801;53.224;6.552;2023-02-28T17:34:12;11.50;;;6.53;;
51724;SDS011;37801;53.224;6.552;2023-02-28T17:36:43;11.00;;;6.40;;
51724;SDS011;37801;53.224;6.552;2023-02-28T17:39:11;9.65;;;6.55;;
51724;SDS011;37801;53.224;6.552;2023-02-28T17:41:39;9.27;;;6.70;;
51724;SDS011;37801;53.224;6.552;2023-02-28T17:44:07;10.93;;;7.22;;
51724;SDS011;37801;53.224;6.552;2023-02-28T17:46:33;12.63;;;7.18;;
51724;SDS011;37801;53.224;6.552;2023-02-28T17:48:59;10.60;;;7.55;;
51724;SDS011;37801;53.224;6.552;2023-02-28T17:51:25;12.50;;;8.55;;
51724;SDS011;37801;53.224;6.552;2023-02-28T17:53:51;13.32;;;8.13;;